sensor_id;sensor_type;location;lat;lon;timestamp;P1;durP1;ratioP1;P2;durP2;ratioP2
36411;SDS011;22445;52.100;5.176;2023-11-21T00:01:01;3.85;;;2.13;;
36411;SDS011;22445;52.100;5.176;2023-11-21T00:03:29;3.47;;;2.90;;
36411;SDS011;22445;52.100;5.176;2023-11-21T00:05:57;4.82;;;3.28;;
36411;SDS011;22445;52.100;5.176;2023-11-21T00:08:23;3.85;;;3.42;;
36411;SDS011;22445;52.100;5.176;2023-11-21T00:10:48;3.20;;;2.70;;
36411;SDS011;22445;52.100;5.176;2023-11-21T00:13:14;6.45;;;4.15;;
36411;SDS011;22445;52.100;5.176;2023-11-21T00:15:39;3.20;;;2.90;;
36411;SDS011;22445;52.100;5.176;2023-11-21T00:18:06;30.30;;;5.53;;
36411;SDS011;22445;52.100;5.176;2023-11-21T00:20:31;2.25;;;2.05;;
36411;SDS011;22445;52.100;5.176;2023-11-21T00:22:57;3.03;;;2.45;;
36411;SDS011;22445;52.100;5.176;2023-11-21T00:25:22;4.70;;;2.88;;
36411;SDS011;22445;52.100;5.176;2023-11-21T00:27:48;3.97;;;1.70;;
36411;SDS011;22445;52.100;5.176;2023-11-21T00:30:14;2.95;;;2.35;;
36411;SDS011;22445;52.100;5.176;2023-11-21T00:32:40;7.53;;;3.88;;
36411;SDS011;22445;52.100;5.176;2023-11-21T00:35:06;3.30;;;2.78;;
36411;SDS011;22445;52.100;5.176;2023-11-21T00:37:31;5.00;;;2.97;;
36411;SDS011;22445;52.100;5.176;2023-11-21T00:39:57;3.38;;;2.92;;
36411;SDS011;22445;52.100;5.176;2023-11-21T00:42:23;3.22;;;2.78;;
36411;SDS011;22445;52.100;5.176;2023-11-21T00:44:48;4.57;;;3.75;;
36411;SDS011;22445;52.100;5.176;2023-11-21T00:47:14;4.75;;;3.72;;
36411;SDS011;22445;52.100;5.176;2023-11-21T00:49:40;4.05;;;3.53;;
36411;SDS011;22445;52.100;5.176;2023-11-21T00:52:06;7.13;;;3.78;;
36411;SDS011;22445;52.100;5.176;2023-11-21T00:54:32;3.78;;;3.30;;
36411;SDS011;22445;52.100;5.176;2023-11-21T00:56:58;4.60;;;3.65;;
36411;SDS011;22445;52.100;5.176;2023-11-21T00:59:24;7.65;;;4.10;;
36411;SDS011;22445;52.100;5.176;2023-11-21T01:01:50;5.78;;;4.05;;
36411;SDS011;22445;52.100;5.176;2023-11-21T01:04:15;4.40;;;3.53;;
36411;SDS011;22445;52.100;5.176;2023-11-21T01:06:41;3.85;;;3.03;;
36411;SDS011;22445;52.100;5.176;2023-11-21T01:09:06;3.55;;;3.05;;
36411;SDS011;22445;52.100;5.176;2023-11-21T01:11:35;6.70;;;3.95;;
36411;SDS011;22445;52.100;5.176;2023-11-21T01:14:02;5.18;;;3.95;;
36411;SDS011;22445;52.100;5.176;2023-11-21T01:16:28;5.28;;;4.22;;
36411;SDS011;22445;52.100;5.176;2023-11-21T01:18:54;4.30;;;3.78;;
36411;SDS011;22445;52.100;5.176;2023-11-21T01:21:19;51.85;;;7.65;;
36411;SDS011;22445;52.100;5.176;2023-11-21T01:23:45;6.28;;;4.40;;
36411;SDS011;22445;52.100;5.176;2023-11-21T01:26:12;5.28;;;3.90;;
36411;SDS011;22445;52.100;5.176;2023-11-21T01:28:38;7.57;;;4.55;;
36411;SDS011;22445;52.100;5.176;2023-11-21T01:31:04;8.43;;;4.72;;
36411;SDS011;22445;52.100;5.176;2023-11-21T01:33:29;7.47;;;5.22;;
36411;SDS011;22445;52.100;5.176;2023-11-21T01:35:55;11.35;;;6.68;;
36411;SDS011;22445;52.100;5.176;2023-11-21T01:38:21;9.70;;;5.72;;
36411;SDS011;22445;52.100;5.176;2023-11-21T01:40:47;11.32;;;5.65;;
36411;SDS011;22445;52.100;5.176;2023-11-21T01:43:13;6.47;;;4.75;;
36411;SDS011;22445;52.100;5.176;2023-11-21T01:45:38;8.13;;;5.13;;
36411;SDS011;22445;52.100;5.176;2023-11-21T01:48:04;8.68;;;5.82;;
36411;SDS011;22445;52.100;5.176;2023-11-21T01:50:31;11.05;;;6.35;;
36411;SDS011;22445;52.100;5.176;2023-11-21T01:52:58;12.10;;;7.03;;
36411;SDS011;22445;52.100;5.176;2023-11-21T01:55:25;11.18;;;7.30;;
36411;SDS011;22445;52.100;5.176;2023-11-21T01:57:52;15.10;;;7.47;;
36411;SDS011;22445;52.100;5.176;2023-11-21T02:00:18;17.73;;;7.63;;
36411;SDS011;22445;52.100;5.176;2023-11-21T02:02:48;9.98;;;6.63;;
36411;SDS011;22445;52.100;5.176;2023-11-21T02:05:17;12.13;;;7.45;;
36411;SDS011;22445;52.100;5.176;2023-11-21T02:07:44;11.23;;;6.60;;
36411;SDS011;22445;52.100;5.176;2023-11-21T02:10:10;12.88;;;8.30;;
36411;SDS011;22445;52.100;5.176;2023-11-21T02:12:47;12.98;;;8.23;;
36411;SDS011;22445;52.100;5.176;2023-11-21T02:15:15;14.52;;;7.88;;
36411;SDS011;22445;52.100;5.176;2023-11-21T02:17:45;16.98;;;8.57;;
36411;SDS011;22445;52.100;5.176;2023-11-21T02:20:16;14.50;;;8.18;;
36411;SDS011;22445;52.100;5.176;2023-11-21T02:22:43;14.00;;;7.65;;
36411;SDS011;22445;52.100;5.176;2023-11-21T02:25:26;17.27;;;8.57;;
36411;SDS011;22445;52.100;5.176;2023-11-21T02:28:12;17.30;;;7.60;;
36411;SDS011;22445;52.100;5.176;2023-11-21T02:30:40;12.38;;;8.02;;
36411;SDS011;22445;52.100;5.176;2023-11-21T02:33:06;15.73;;;8.38;;
36411;SDS011;22445;52.100;5.176;2023-11-21T02:35:32;14.50;;;8.88;;
36411;SDS011;22445;52.100;5.176;2023-11-21T02:37:57;15.32;;;8.30;;
36411;SDS011;22445;52.100;5.176;2023-11-21T02:40:23;21.15;;;10.02;;
36411;SDS011;22445;52.100;5.176;2023-11-21T02:42:50;18.05;;;9.73;;
36411;SDS011;22445;52.100;5.176;2023-11-21T02:45:21;23.25;;;9.82;;
36411;SDS011;22445;52.100;5.176;2023-11-21T02:47:46;18.17;;;10.68;;
36411;SDS011;22445;52.100;5.176;2023-11-21T02:50:12;18.27;;;10.25;;
36411;SDS011;22445;52.100;5.176;2023-11-21T02:52:38;18.95;;;9.10;;
36411;SDS011;22445;52.100;5.176;2023-11-21T02:55:05;16.52;;;9.13;;
36411;SDS011;22445;52.100;5.176;2023-11-21T02:57:32;17.13;;;9.40;;
36411;SDS011;22445;52.100;5.176;2023-11-21T02:59:58;16.77;;;9.75;;
36411;SDS011;22445;52.100;5.176;2023-11-21T03:02:25;16.80;;;9.57;;
36411;SDS011;22445;52.100;5.176;2023-11-21T03:04:50;16.50;;;10.23;;
36411;SDS011;22445;52.100;5.176;2023-11-21T03:07:16;16.13;;;8.77;;
36411;SDS011;22445;52.100;5.176;2023-11-21T03:09:44;20.90;;;10.07;;
36411;SDS011;22445;52.100;5.176;2023-11-21T03:12:11;14.43;;;9.40;;
36411;SDS011;22445;52.100;5.176;2023-11-21T03:14:37;19.00;;;9.90;;
36411;SDS011;22445;52.100;5.176;2023-11-21T03:17:04;16.20;;;9.10;;
36411;SDS011;22445;52.100;5.176;2023-11-21T03:19:30;17.98;;;9.50;;
36411;SDS011;22445;52.100;5.176;2023-11-21T03:21:56;16.88;;;10.65;;
36411;SDS011;22445;52.100;5.176;2023-11-21T03:24:21;15.90;;;10.40;;
36411;SDS011;22445;52.100;5.176;2023-11-21T03:26:48;18.88;;;10.82;;
36411;SDS011;22445;52.100;5.176;2023-11-21T03:29:13;17.90;;;9.35;;
36411;SDS011;22445;52.100;5.176;2023-11-21T03:31:40;17.15;;;9.32;;
36411;SDS011;22445;52.100;5.176;2023-11-21T03:34:06;16.27;;;8.70;;
36411;SDS011;22445;52.100;5.176;2023-11-21T03:36:31;15.30;;;9.05;;
36411;SDS011;22445;52.100;5.176;2023-11-21T03:38:57;16.65;;;9.05;;
36411;SDS011;22445;52.100;5.176;2023-11-21T03:41:23;19.58;;;8.98;;
36411;SDS011;22445;52.100;5.176;2023-11-21T03:43:48;19.20;;;10.32;;
36411;SDS011;22445;52.100;5.176;2023-11-21T03:46:14;18.50;;;10.07;;
36411;SDS011;22445;52.100;5.176;2023-11-21T03:48:39;18.85;;;9.15;;
36411;SDS011;22445;52.100;5.176;2023-11-21T03:51:05;14.77;;;9.93;;
36411;SDS011;22445;52.100;5.176;2023-11-21T03:53:31;17.15;;;9.15;;
36411;SDS011;22445;52.100;5.176;2023-11-21T03:55:57;20.05;;;9.00;;
36411;SDS011;22445;52.100;5.176;2023-11-21T03:58:23;18.88;;;9.25;;
36411;SDS011;22445;52.100;5.176;2023-11-21T04:00:48;21.33;;;10.80;;
36411;SDS011;22445;52.100;5.176;2023-11-21T04:03:14;21.60;;;10.93;;
36411;SDS011;22445;52.100;5.176;2023-11-21T04:05:40;19.67;;;10.73;;
36411;SDS011;22445;52.100;5.176;2023-11-21T04:08:06;19.08;;;10.52;;
36411;SDS011;22445;52.100;5.176;2023-11-21T04:10:32;17.13;;;10.10;;
36411;SDS011;22445;52.100;5.176;2023-11-21T04:12:58;16.40;;;10.10;;
36411;SDS011;22445;52.100;5.176;2023-11-21T04:15:23;21.40;;;10.55;;
36411;SDS011;22445;52.100;5.176;2023-11-21T04:17:49;19.20;;;10.40;;
36411;SDS011;22445;52.100;5.176;2023-11-21T04:20:14;14.98;;;9.50;;
36411;SDS011;22445;52.100;5.176;2023-11-21T04:22:40;18.38;;;10.30;;
36411;SDS011;22445;52.100;5.176;2023-11-21T04:25:10;18.00;;;10.90;;
36411;SDS011;22445;52.100;5.176;2023-11-21T04:27:36;19.17;;;10.77;;
36411;SDS011;22445;52.100;5.176;2023-11-21T04:30:04;21.75;;;11.13;;
36411;SDS011;22445;52.100;5.176;2023-11-21T04:32:30;20.65;;;10.40;;
36411;SDS011;22445;52.100;5.176;2023-11-21T04:34:56;22.75;;;9.95;;
36411;SDS011;22445;52.100;5.176;2023-11-21T04:37:21;20.52;;;10.82;;
36411;SDS011;22445;52.100;5.176;2023-11-21T04:39:48;19.60;;;9.63;;
36411;SDS011;22445;52.100;5.176;2023-11-21T04:42:13;17.00;;;10.48;;
36411;SDS011;22445;52.100;5.176;2023-11-21T04:44:39;17.23;;;9.45;;
36411;SDS011;22445;52.100;5.176;2023-11-21T04:47:06;20.83;;;10.63;;
36411;SDS011;22445;52.100;5.176;2023-11-21T04:49:32;19.67;;;10.27;;
36411;SDS011;22445;52.100;5.176;2023-11-21T04:51:58;20.55;;;10.85;;
36411;SDS011;22445;52.100;5.176;2023-11-21T04:54:24;17.30;;;11.27;;
36411;SDS011;22445;52.100;5.176;2023-11-21T04:56:50;19.58;;;10.40;;
36411;SDS011;22445;52.100;5.176;2023-11-21T04:59:15;17.05;;;9.85;;
36411;SDS011;22445;52.100;5.176;2023-11-21T05:01:41;19.92;;;10.27;;
36411;SDS011;22445;52.100;5.176;2023-11-21T05:04:06;20.13;;;10.82;;
36411;SDS011;22445;52.100;5.176;2023-11-21T05:06:34;18.05;;;9.80;;
36411;SDS011;22445;52.100;5.176;2023-11-21T05:08:59;17.40;;;9.88;;
36411;SDS011;22445;52.100;5.176;2023-11-21T05:11:26;20.92;;;10.40;;
36411;SDS011;22445;52.100;5.176;2023-11-21T05:13:52;20.40;;;9.75;;
36411;SDS011;22445;52.100;5.176;2023-11-21T05:16:21;22.48;;;11.07;;
36411;SDS011;22445;52.100;5.176;2023-11-21T05:18:47;18.25;;;10.48;;
36411;SDS011;22445;52.100;5.176;2023-11-21T05:21:13;17.13;;;9.75;;
36411;SDS011;22445;52.100;5.176;2023-11-21T05:23:40;21.25;;;10.85;;
36411;SDS011;22445;52.100;5.176;2023-11-21T05:26:05;18.27;;;9.48;;
36411;SDS011;22445;52.100;5.176;2023-11-21T05:28:31;17.38;;;10.05;;
36411;SDS011;22445;52.100;5.176;2023-11-21T05:30:57;21.25;;;9.90;;
36411;SDS011;22445;52.100;5.176;2023-11-21T05:33:22;21.85;;;10.38;;
36411;SDS011;22445;52.100;5.176;2023-11-21T05:35:48;18.73;;;9.40;;
36411;SDS011;22445;52.100;5.176;2023-11-21T05:38:14;23.85;;;10.50;;
36411;SDS011;22445;52.100;5.176;2023-11-21T05:40:39;15.10;;;9.50;;
36411;SDS011;22445;52.100;5.176;2023-11-21T05:43:06;18.77;;;9.65;;
36411;SDS011;22445;52.100;5.176;2023-11-21T05:45:32;17.25;;;9.18;;
36411;SDS011;22445;52.100;5.176;2023-11-21T05:47:58;23.83;;;10.63;;
36411;SDS011;22445;52.100;5.176;2023-11-21T05:50:23;17.15;;;9.10;;
36411;SDS011;22445;52.100;5.176;2023-11-21T05:52:49;16.90;;;9.35;;
36411;SDS011;22445;52.100;5.176;2023-11-21T05:55:15;17.90;;;8.65;;
36411;SDS011;22445;52.100;5.176;2023-11-21T05:57:41;18.08;;;8.52;;
36411;SDS011;22445;52.100;5.176;2023-11-21T06:00:14;18.88;;;9.88;;
36411;SDS011;22445;52.100;5.176;2023-11-21T06:02:45;18.35;;;10.02;;
36411;SDS011;22445;52.100;5.176;2023-11-21T06:05:11;18.00;;;9.70;;
36411;SDS011;22445;52.100;5.176;2023-11-21T06:07:37;18.48;;;9.85;;
36411;SDS011;22445;52.100;5.176;2023-11-21T06:10:03;22.75;;;9.52;;
36411;SDS011;22445;52.100;5.176;2023-11-21T06:12:36;17.55;;;9.25;;
36411;SDS011;22445;52.100;5.176;2023-11-21T06:15:03;19.92;;;9.38;;
36411;SDS011;22445;52.100;5.176;2023-11-21T06:17:49;19.08;;;10.90;;
36411;SDS011;22445;52.100;5.176;2023-11-21T06:20:17;19.42;;;9.77;;
36411;SDS011;22445;52.100;5.176;2023-11-21T06:22:44;19.27;;;9.55;;
36411;SDS011;22445;52.100;5.176;2023-11-21T06:25:12;20.35;;;9.90;;
36411;SDS011;22445;52.100;5.176;2023-11-21T06:27:39;20.63;;;9.60;;
36411;SDS011;22445;52.100;5.176;2023-11-21T06:30:05;17.73;;;9.10;;
36411;SDS011;22445;52.100;5.176;2023-11-21T06:32:32;18.85;;;9.25;;
36411;SDS011;22445;52.100;5.176;2023-11-21T06:34:58;17.52;;;9.57;;
36411;SDS011;22445;52.100;5.176;2023-11-21T06:37:27;12.45;;;8.13;;
36411;SDS011;22445;52.100;5.176;2023-11-21T06:39:53;19.33;;;9.90;;
36411;SDS011;22445;52.100;5.176;2023-11-21T06:42:19;14.32;;;9.00;;
36411;SDS011;22445;52.100;5.176;2023-11-21T06:44:45;20.33;;;10.45;;
36411;SDS011;22445;52.100;5.176;2023-11-21T06:47:12;18.38;;;9.73;;
36411;SDS011;22445;52.100;5.176;2023-11-21T06:49:38;16.10;;;10.80;;
36411;SDS011;22445;52.100;5.176;2023-11-21T06:52:04;17.20;;;9.00;;
36411;SDS011;22445;52.100;5.176;2023-11-21T06:54:30;19.73;;;9.52;;
36411;SDS011;22445;52.100;5.176;2023-11-21T06:56:56;20.30;;;9.38;;
36411;SDS011;22445;52.100;5.176;2023-11-21T06:59:22;14.18;;;9.27;;
36411;SDS011;22445;52.100;5.176;2023-11-21T07:01:49;19.15;;;10.88;;
36411;SDS011;22445;52.100;5.176;2023-11-21T07:04:15;20.20;;;9.07;;
36411;SDS011;22445;52.100;5.176;2023-11-21T07:06:40;18.83;;;9.90;;
36411;SDS011;22445;52.100;5.176;2023-11-21T07:09:06;24.05;;;10.93;;
36411;SDS011;22445;52.100;5.176;2023-11-21T07:11:34;17.25;;;9.48;;
36411;SDS011;22445;52.100;5.176;2023-11-21T07:14:00;25.90;;;11.73;;
36411;SDS011;22445;52.100;5.176;2023-11-21T07:16:33;19.08;;;9.75;;
36411;SDS011;22445;52.100;5.176;2023-11-21T07:19:06;22.45;;;11.15;;
36411;SDS011;22445;52.100;5.176;2023-11-21T07:21:32;21.88;;;10.52;;
36411;SDS011;22445;52.100;5.176;2023-11-21T07:24:02;19.77;;;10.27;;
36411;SDS011;22445;52.100;5.176;2023-11-21T07:26:28;18.77;;;11.02;;
36411;SDS011;22445;52.100;5.176;2023-11-21T07:28:54;19.13;;;10.90;;
36411;SDS011;22445;52.100;5.176;2023-11-21T07:31:21;19.05;;;11.00;;
36411;SDS011;22445;52.100;5.176;2023-11-21T07:33:49;16.50;;;10.23;;
36411;SDS011;22445;52.100;5.176;2023-11-21T07:36:21;18.38;;;10.35;;
36411;SDS011;22445;52.100;5.176;2023-11-21T07:38:47;23.00;;;12.40;;
36411;SDS011;22445;52.100;5.176;2023-11-21T07:41:13;20.08;;;10.60;;
36411;SDS011;22445;52.100;5.176;2023-11-21T07:43:42;22.17;;;11.43;;
36411;SDS011;22445;52.100;5.176;2023-11-21T07:46:08;18.38;;;10.75;;
36411;SDS011;22445;52.100;5.176;2023-11-21T07:48:34;18.83;;;10.57;;
36411;SDS011;22445;52.100;5.176;2023-11-21T07:51:00;20.50;;;10.23;;
36411;SDS011;22445;52.100;5.176;2023-11-21T07:53:28;17.75;;;10.25;;
36411;SDS011;22445;52.100;5.176;2023-11-21T07:55:58;16.80;;;9.20;;
36411;SDS011;22445;52.100;5.176;2023-11-21T07:58:27;18.83;;;9.68;;
36411;SDS011;22445;52.100;5.176;2023-11-21T08:00:53;14.90;;;8.63;;
36411;SDS011;22445;52.100;5.176;2023-11-21T08:03:19;17.48;;;8.10;;
36411;SDS011;22445;52.100;5.176;2023-11-21T08:05:45;14.10;;;7.28;;
36411;SDS011;22445;52.100;5.176;2023-11-21T08:08:10;12.57;;;7.30;;
36411;SDS011;22445;52.100;5.176;2023-11-21T08:10:36;11.38;;;6.68;;
36411;SDS011;22445;52.100;5.176;2023-11-21T08:13:02;11.57;;;6.38;;
36411;SDS011;22445;52.100;5.176;2023-11-21T08:15:28;14.88;;;6.50;;
36411;SDS011;22445;52.100;5.176;2023-11-21T08:17:55;15.55;;;6.43;;
36411;SDS011;22445;52.100;5.176;2023-11-21T08:20:21;10.80;;;6.00;;
36411;SDS011;22445;52.100;5.176;2023-11-21T08:22:47;11.43;;;6.30;;
36411;SDS011;22445;52.100;5.176;2023-11-21T08:25:13;11.90;;;5.97;;
36411;SDS011;22445;52.100;5.176;2023-11-21T08:27:39;12.13;;;5.93;;
36411;SDS011;22445;52.100;5.176;2023-11-21T08:30:05;10.45;;;6.05;;
36411;SDS011;22445;52.100;5.176;2023-11-21T08:32:31;11.63;;;5.70;;
36411;SDS011;22445;52.100;5.176;2023-11-21T08:34:58;11.88;;;5.57;;
36411;SDS011;22445;52.100;5.176;2023-11-21T08:37:24;10.00;;;5.25;;
36411;SDS011;22445;52.100;5.176;2023-11-21T08:39:52;13.43;;;6.10;;
36411;SDS011;22445;52.100;5.176;2023-11-21T08:42:18;14.60;;;6.70;;
36411;SDS011;22445;52.100;5.176;2023-11-21T08:44:44;12.57;;;6.70;;
36411;SDS011;22445;52.100;5.176;2023-11-21T08:47:10;12.80;;;6.53;;
36411;SDS011;22445;52.100;5.176;2023-11-21T08:49:35;18.20;;;7.15;;
36411;SDS011;22445;52.100;5.176;2023-11-21T08:52:01;17.80;;;7.28;;
36411;SDS011;22445;52.100;5.176;2023-11-21T08:54:27;17.20;;;7.50;;
36411;SDS011;22445;52.100;5.176;2023-11-21T08:56:53;14.32;;;7.15;;
36411;SDS011;22445;52.100;5.176;2023-11-21T08:59:19;14.02;;;7.20;;
36411;SDS011;22445;52.100;5.176;2023-11-21T09:01:45;15.55;;;7.53;;
36411;SDS011;22445;52.100;5.176;2023-11-21T09:04:11;18.20;;;7.72;;
36411;SDS011;22445;52.100;5.176;2023-11-21T09:06:37;13.57;;;7.32;;
36411;SDS011;22445;52.100;5.176;2023-11-21T09:09:03;16.65;;;8.13;;
36411;SDS011;22445;52.100;5.176;2023-11-21T09:11:31;13.85;;;7.65;;
36411;SDS011;22445;52.100;5.176;2023-11-21T09:13:59;16.33;;;8.20;;
36411;SDS011;22445;52.100;5.176;2023-11-21T09:16:25;17.50;;;8.02;;
36411;SDS011;22445;52.100;5.176;2023-11-21T09:18:50;15.60;;;8.50;;
36411;SDS011;22445;52.100;5.176;2023-11-21T09:21:16;12.10;;;7.65;;
36411;SDS011;22445;52.100;5.176;2023-11-21T09:23:43;12.63;;;7.43;;
36411;SDS011;22445;52.100;5.176;2023-11-21T09:26:09;15.77;;;8.27;;
36411;SDS011;22445;52.100;5.176;2023-11-21T09:28:35;17.15;;;8.40;;
36411;SDS011;22445;52.100;5.176;2023-11-21T09:31:06;15.73;;;7.82;;
36411;SDS011;22445;52.100;5.176;2023-11-21T09:33:34;14.20;;;9.00;;
36411;SDS011;22445;52.100;5.176;2023-11-21T09:36:00;15.63;;;8.82;;
36411;SDS011;22445;52.100;5.176;2023-11-21T09:38:26;15.30;;;8.27;;
36411;SDS011;22445;52.100;5.176;2023-11-21T09:40:54;12.77;;;8.13;;
36411;SDS011;22445;52.100;5.176;2023-11-21T09:43:20;14.30;;;8.30;;
36411;SDS011;22445;52.100;5.176;2023-11-21T09:45:47;13.55;;;8.05;;
36411;SDS011;22445;52.100;5.176;2023-11-21T09:48:18;16.25;;;8.15;;
36411;SDS011;22445;52.100;5.176;2023-11-21T09:50:45;14.40;;;8.40;;
36411;SDS011;22445;52.100;5.176;2023-11-21T09:53:21;15.10;;;8.52;;
36411;SDS011;22445;52.100;5.176;2023-11-21T09:55:53;13.98;;;8.15;;
36411;SDS011;22445;52.100;5.176;2023-11-21T09:58:19;14.73;;;8.50;;
36411;SDS011;22445;52.100;5.176;2023-11-21T10:00:47;15.98;;;8.50;;
36411;SDS011;22445;52.100;5.176;2023-11-21T10:03:13;16.25;;;8.75;;
36411;SDS011;22445;52.100;5.176;2023-11-21T10:05:41;12.40;;;8.15;;
36411;SDS011;22445;52.100;5.176;2023-11-21T10:08:08;13.27;;;7.72;;
36411;SDS011;22445;52.100;5.176;2023-11-21T10:10:36;14.57;;;8.05;;
36411;SDS011;22445;52.100;5.176;2023-11-21T10:13:03;14.60;;;7.85;;
36411;SDS011;22445;52.100;5.176;2023-11-21T10:15:35;11.98;;;7.68;;
36411;SDS011;22445;52.100;5.176;2023-11-21T10:18:04;14.35;;;7.80;;
36411;SDS011;22445;52.100;5.176;2023-11-21T10:20:33;11.65;;;6.45;;
36411;SDS011;22445;52.100;5.176;2023-11-21T10:22:59;14.93;;;7.28;;
36411;SDS011;22445;52.100;5.176;2023-11-21T10:25:29;14.80;;;7.50;;
36411;SDS011;22445;52.100;5.176;2023-11-21T10:27:58;15.63;;;7.53;;
36411;SDS011;22445;52.100;5.176;2023-11-21T10:30:37;11.88;;;6.70;;
36411;SDS011;22445;52.100;5.176;2023-11-21T10:33:06;15.75;;;8.07;;
36411;SDS011;22445;52.100;5.176;2023-11-21T10:35:42;13.23;;;6.85;;
36411;SDS011;22445;52.100;5.176;2023-11-21T10:38:15;10.52;;;6.25;;
36411;SDS011;22445;52.100;5.176;2023-11-21T10:40:41;13.07;;;6.38;;
36411;SDS011;22445;52.100;5.176;2023-11-21T10:43:07;12.38;;;6.38;;
36411;SDS011;22445;52.100;5.176;2023-11-21T10:45:38;13.07;;;6.38;;
36411;SDS011;22445;52.100;5.176;2023-11-21T10:48:07;9.77;;;5.47;;
36411;SDS011;22445;52.100;5.176;2023-11-21T10:50:43;11.20;;;5.95;;
36411;SDS011;22445;52.100;5.176;2023-11-21T10:53:10;12.57;;;5.70;;
36411;SDS011;22445;52.100;5.176;2023-11-21T10:55:39;11.00;;;5.43;;
36411;SDS011;22445;52.100;5.176;2023-11-21T10:58:05;12.73;;;5.60;;
36411;SDS011;22445;52.100;5.176;2023-11-21T11:00:32;10.48;;;5.53;;
36411;SDS011;22445;52.100;5.176;2023-11-21T11:02:58;12.85;;;6.13;;
36411;SDS011;22445;52.100;5.176;2023-11-21T11:05:24;14.35;;;6.68;;
36411;SDS011;22445;52.100;5.176;2023-11-21T11:07:52;10.77;;;6.40;;
36411;SDS011;22445;52.100;5.176;2023-11-21T11:10:26;12.20;;;6.68;;
36411;SDS011;22445;52.100;5.176;2023-11-21T11:12:54;12.52;;;6.28;;
36411;SDS011;22445;52.100;5.176;2023-11-21T11:15:20;13.85;;;6.72;;
36411;SDS011;22445;52.100;5.176;2023-11-21T11:17:46;13.68;;;6.88;;
36411;SDS011;22445;52.100;5.176;2023-11-21T11:20:16;14.82;;;6.63;;
36411;SDS011;22445;52.100;5.176;2023-11-21T11:22:57;13.70;;;6.82;;
36411;SDS011;22445;52.100;5.176;2023-11-21T11:31:55;12.20;;;7.22;;
36411;SDS011;22445;52.100;5.176;2023-11-21T11:34:47;12.23;;;8.15;;
36411;SDS011;22445;52.100;5.176;2023-11-21T11:37:18;14.18;;;7.55;;
36411;SDS011;22445;52.100;5.176;2023-11-21T11:39:44;18.30;;;9.38;;
36411;SDS011;22445;52.100;5.176;2023-11-21T11:42:14;15.20;;;8.60;;
36411;SDS011;22445;52.100;5.176;2023-11-21T11:47:32;17.23;;;9.30;;
36411;SDS011;22445;52.100;5.176;2023-11-21T11:50:02;16.30;;;8.73;;
36411;SDS011;22445;52.100;5.176;2023-11-21T11:52:51;19.25;;;9.60;;
36411;SDS011;22445;52.100;5.176;2023-11-21T11:55:20;16.10;;;8.45;;
36411;SDS011;22445;52.100;5.176;2023-11-21T11:57:47;17.20;;;9.98;;
36411;SDS011;22445;52.100;5.176;2023-11-21T12:00:17;19.23;;;9.93;;
36411;SDS011;22445;52.100;5.176;2023-11-21T12:03:00;23.13;;;11.43;;
36411;SDS011;22445;52.100;5.176;2023-11-21T12:05:30;22.52;;;10.95;;
36411;SDS011;22445;52.100;5.176;2023-11-21T12:08:10;19.42;;;9.70;;
36411;SDS011;22445;52.100;5.176;2023-11-21T12:10:37;21.77;;;11.00;;
36411;SDS011;22445;52.100;5.176;2023-11-21T12:13:07;21.38;;;10.63;;
36411;SDS011;22445;52.100;5.176;2023-11-21T12:15:35;19.25;;;10.43;;
36411;SDS011;22445;52.100;5.176;2023-11-21T12:18:02;17.83;;;9.85;;
36411;SDS011;22445;52.100;5.176;2023-11-21T12:20:29;16.92;;;10.38;;
36411;SDS011;22445;52.100;5.176;2023-11-21T12:22:56;19.30;;;11.23;;
36411;SDS011;22445;52.100;5.176;2023-11-21T12:25:26;18.88;;;10.13;;
36411;SDS011;22445;52.100;5.176;2023-11-21T12:28:00;18.90;;;10.00;;
36411;SDS011;22445;52.100;5.176;2023-11-21T12:30:29;17.55;;;10.13;;
36411;SDS011;22445;52.100;5.176;2023-11-21T12:33:02;18.13;;;10.95;;
36411;SDS011;22445;52.100;5.176;2023-11-21T12:35:34;21.23;;;11.48;;
36411;SDS011;22445;52.100;5.176;2023-11-21T12:38:00;20.67;;;11.55;;
36411;SDS011;22445;52.100;5.176;2023-11-21T12:40:34;20.95;;;12.30;;
36411;SDS011;22445;52.100;5.176;2023-11-21T12:43:00;23.15;;;13.15;;
36411;SDS011;22445;52.100;5.176;2023-11-21T12:45:33;20.85;;;11.98;;
36411;SDS011;22445;52.100;5.176;2023-11-21T12:48:05;19.35;;;12.27;;
36411;SDS011;22445;52.100;5.176;2023-11-21T12:50:36;19.67;;;11.57;;
36411;SDS011;22445;52.100;5.176;2023-11-21T12:53:03;20.70;;;12.02;;
36411;SDS011;22445;52.100;5.176;2023-11-21T12:55:31;21.98;;;12.27;;
36411;SDS011;22445;52.100;5.176;2023-11-21T12:57:59;20.77;;;12.02;;
36411;SDS011;22445;52.100;5.176;2023-11-21T13:00:43;20.52;;;11.02;;
36411;SDS011;22445;52.100;5.176;2023-11-21T13:03:12;13.88;;;9.15;;
36411;SDS011;22445;52.100;5.176;2023-11-21T13:05:42;15.05;;;10.20;;
36411;SDS011;22445;52.100;5.176;2023-11-21T13:08:12;18.27;;;9.95;;
36411;SDS011;22445;52.100;5.176;2023-11-21T13:10:39;14.95;;;9.60;;
36411;SDS011;22445;52.100;5.176;2023-11-21T13:13:08;13.25;;;8.63;;
36411;SDS011;22445;52.100;5.176;2023-11-21T13:15:46;11.35;;;7.88;;
36411;SDS011;22445;52.100;5.176;2023-11-21T13:18:13;13.65;;;8.30;;
36411;SDS011;22445;52.100;5.176;2023-11-21T13:20:39;10.50;;;7.65;;
36411;SDS011;22445;52.100;5.176;2023-11-21T13:23:09;11.63;;;7.57;;
36411;SDS011;22445;52.100;5.176;2023-11-21T13:25:37;11.38;;;7.35;;
36411;SDS011;22445;52.100;5.176;2023-11-21T13:28:06;9.38;;;6.88;;
36411;SDS011;22445;52.100;5.176;2023-11-21T13:30:32;12.65;;;7.10;;
36411;SDS011;22445;52.100;5.176;2023-11-21T13:33:01;10.73;;;6.75;;
36411;SDS011;22445;52.100;5.176;2023-11-21T13:35:28;9.43;;;6.32;;
36411;SDS011;22445;52.100;5.176;2023-11-21T13:38:06;7.30;;;4.80;;
36411;SDS011;22445;52.100;5.176;2023-11-21T13:40:33;6.80;;;3.60;;
36411;SDS011;22445;52.100;5.176;2023-11-21T13:43:11;4.68;;;3.40;;
36411;SDS011;22445;52.100;5.176;2023-11-21T13:45:39;4.60;;;2.72;;
36411;SDS011;22445;52.100;5.176;2023-11-21T13:48:06;5.25;;;3.13;;
36411;SDS011;22445;52.100;5.176;2023-11-21T13:50:45;4.38;;;2.72;;
36411;SDS011;22445;52.100;5.176;2023-11-21T13:53:23;6.10;;;3.30;;
36411;SDS011;22445;52.100;5.176;2023-11-21T13:55:49;5.18;;;3.33;;
36411;SDS011;22445;52.100;5.176;2023-11-21T13:58:25;7.25;;;3.38;;
36411;SDS011;22445;52.100;5.176;2023-11-21T14:01:10;7.97;;;3.00;;
36411;SDS011;22445;52.100;5.176;2023-11-21T14:04:02;6.25;;;3.85;;
36411;SDS011;22445;52.100;5.176;2023-11-21T14:06:48;5.65;;;3.50;;
36411;SDS011;22445;52.100;5.176;2023-11-21T14:09:20;6.68;;;4.15;;
36411;SDS011;22445;52.100;5.176;2023-11-21T14:11:51;9.95;;;5.25;;
36411;SDS011;22445;52.100;5.176;2023-11-21T14:14:22;8.80;;;5.80;;
36411;SDS011;22445;52.100;5.176;2023-11-21T14:16:55;9.40;;;6.05;;
36411;SDS011;22445;52.100;5.176;2023-11-21T14:19:31;10.30;;;6.72;;
36411;SDS011;22445;52.100;5.176;2023-11-21T14:21:58;15.20;;;7.78;;
36411;SDS011;22445;52.100;5.176;2023-11-21T14:24:24;16.00;;;9.13;;
36411;SDS011;22445;52.100;5.176;2023-11-21T14:26:50;14.60;;;8.93;;
36411;SDS011;22445;52.100;5.176;2023-11-21T14:29:17;17.48;;;9.85;;
36411;SDS011;22445;52.100;5.176;2023-11-21T14:31:48;18.10;;;9.82;;
36411;SDS011;22445;52.100;5.176;2023-11-21T14:34:15;17.25;;;10.32;;
36411;SDS011;22445;52.100;5.176;2023-11-21T14:36:42;20.02;;;11.07;;
36411;SDS011;22445;52.100;5.176;2023-11-21T14:39:09;20.70;;;11.10;;
36411;SDS011;22445;52.100;5.176;2023-11-21T14:41:45;21.98;;;12.18;;
36411;SDS011;22445;52.100;5.176;2023-11-21T14:44:11;24.70;;;13.32;;
36411;SDS011;22445;52.100;5.176;2023-11-21T14:46:37;26.50;;;13.20;;